Time;durP1;ratioP1;P1;durP2;ratioP2;P2;SDS_P1;SDS_P2;PMS_P1;PMS_P2;Temp;Humidity;BMP_temperature;BMP_pressure;BME280_temperature;BME280_humidity;BME280_pressure;Samples;Min_cycle;Max_cycle;Signal;HPM_P1;HPM_P2
2024/01/12 00:00:31;;;;;;;33.20;22.55;;;;;;;-1.71;100.00;100930.00;5608227;31;34594;-70
2024/01/12 00:03:36;;;;;;;14.27;5.47;;;;;;;-1.68;100.00;100924.63;5608059;31;34911;-70
2024/01/12 00:06:39;;;;;;;34.92;23.02;;;;;;;-1.76;100.00;100933.69;5607955;31;34630;-70
2024/01/12 00:09:43;;;;;;;35.53;23.08;;;;;;;-1.79;100.00;100930.38;5607217;31;34390;-70
2024/01/12 00:12:46;;;;;;;35.33;22.87;;;;;;;-1.75;100.00;100926.72;5607745;31;34612;-69
2024/01/12 00:15:49;;;;;;;35.55;22.95;;;;;;;-1.87;100.00;100924.72;5607734;31;34292;-70
2024/01/12 00:18:52;;;;;;;9.18;3.90;;;;;;;-1.95;100.00;100921.66;5607586;31;34499;-71
2024/01/12 00:21:55;;;;;;;36.67;23.83;;;;;;;-2.03;100.00;100916.81;5607719;31;34447;-70
2024/01/12 00:24:58;;;;;;;35.60;23.17;;;;;;;-1.98;100.00;100916.59;5607744;31;35026;-70
2024/01/12 00:28:01;;;;;;;37.38;23.55;;;;;;;-1.97;100.00;100920.88;5607735;31;35006;-70
2024/01/12 00:31:09;;;;;;;40.95;23.95;;;;;;;-1.93;100.00;100931.06;5607654;31;34306;-71
2024/01/12 00:34:12;;;;;;;37.80;24.60;;;;;;;-1.97;100.00;100926.06;5607006;31;34292;-71
2024/01/12 00:37:15;;;;;;;13.70;4.68;;;;;;;-2.07;100.00;100922.25;5607917;31;35041;-71
2024/01/12 00:40:18;;;;;;;36.70;24.17;;;;;;;-2.09;100.00;100929.28;5606776;31;35352;-71
2024/01/12 00:43:21;;;;;;;38.38;24.42;;;;;;;-2.17;100.00;100927.03;5607836;31;35036;-71
2024/01/12 00:46:25;;;;;;;36.05;23.60;;;;;;;-2.16;100.00;100938.28;5607036;31;34273;-71
2024/01/12 00:49:27;;;;;;;36.38;24.58;;;;;;;-2.21;100.00;100936.75;5607495;31;34875;-72
2024/01/12 00:52:30;;;;;;;38.10;25.05;;;;;;;-2.29;100.00;100946.69;5607199;31;34922;-70
2024/01/12 00:55:33;;;;;;;35.15;23.60;;;;;;;-2.30;100.00;100949.34;5607256;31;34241;-70
2024/01/12 00:58:36;;;;;;;35.40;23.42;;;;;;;-2.30;100.00;100962.34;5607411;31;34302;-70
2024/01/12 01:01:39;;;;;;;39.58;24.60;;;;;;;-2.33;100.00;100957.28;5607050;31;35153;-70
2024/01/12 01:04:42;;;;;;;16.02;6.82;;;;;;;-2.31;100.00;100964.09;5607150;31;34295;-70
2024/01/12 01:07:45;;;;;;;39.03;25.12;;;;;;;-2.38;100.00;100954.91;5606930;31;34396;-70
2024/01/12 01:10:47;;;;;;;35.28;23.95;;;;;;;-2.44;100.00;100960.38;5606895;31;34360;-70
2024/01/12 01:13:50;;;;;;;35.90;24.55;;;;;;;-2.42;100.00;100968.94;5606797;31;34457;-71
2024/01/12 01:16:53;;;;;;;11.52;4.18;;;;;;;-2.46;100.00;100972.59;5607029;31;34441;-70
2024/01/12 01:19:56;;;;;;;36.72;24.45;;;;;;;-2.40;100.00;100966.28;5606639;31;34319;-70
2024/01/12 01:22:59;;;;;;;40.20;25.10;;;;;;;-2.32;100.00;100980.59;5608449;31;34192;-70
2024/01/12 01:26:02;;;;;;;38.42;24.87;;;;;;;-2.35;100.00;100972.94;5609582;31;34989;-70
2024/01/12 01:29:05;;;;;;;35.38;24.95;;;;;;;-2.33;100.00;100978.09;5609642;31;35104;-70
2024/01/12 01:32:08;;;;;;;40.08;24.65;;;;;;;-2.44;100.00;100975.97;5609608;31;34978;-68
2024/01/12 01:35:11;;;;;;;37.03;24.55;;;;;;;-2.33;100.00;100965.94;5609581;31;34448;-69
2024/01/12 01:38:14;;;;;;;36.28;23.90;;;;;;;-2.45;100.00;100966.50;5609362;31;34390;-69
2024/01/12 01:41:17;;;;;;;20.45;6.82;;;;;;;-2.45;100.00;100971.69;5609924;31;34391;-70
2024/01/12 01:44:21;;;;;;;37.80;25.40;;;;;;;-2.53;100.00;100968.59;5608614;31;34342;-69
2024/01/12 01:47:25;;;;;;;37.58;24.12;;;;;;;-2.62;100.00;100963.00;5608713;31;34358;-69
2024/01/12 01:50:29;;;;;;;37.67;24.63;;;;;;;-2.52;100.00;100965.09;5609402;31;34391;-69
2024/01/12 01:53:32;;;;;;;36.80;24.48;;;;;;;-2.58;100.00;100964.53;5609239;31;34382;-69
2024/01/12 01:56:38;;;;;;;11.52;4.97;;;;;;;-2.70;100.00;100956.38;5609403;31;35039;-71
2024/01/12 01:59:41;;;;;;;34.47;23.67;;;;;;;-2.57;100.00;100967.06;5609723;31;34565;-70
2024/01/12 02:02:45;;;;;;;13.85;4.72;;;;;;;-2.73;100.00;100968.66;5608634;31;34340;-71
2024/01/12 02:05:51;;;;;;;40.47;24.23;;;;;;;-2.69;100.00;100968.47;5609275;31;34396;-70
2024/01/12 02:08:57;;;;;;;7.20;3.12;;;;;;;-2.55;100.00;100970.41;5609341;31;34939;-70
2024/01/12 02:12:04;;;;;;;37.15;24.83;;;;;;;-2.42;100.00;100970.72;5609677;31;34313;-71
2024/01/12 02:15:07;;;;;;;35.42;23.67;;;;;;;-2.33;100.00;100970.28;5582680;31;34315;-71
2024/01/12 02:18:11;;;;;;;5.50;2.87;;;;;;;-2.29;100.00;100969.22;5609193;31;33517;-71
2024/01/12 02:21:13;;;;;;;35.45;23.42;;;;;;;-2.23;100.00;100968.94;5609231;31;34999;-69
2024/01/12 02:24:16;;;;;;;36.13;24.17;;;;;;;-2.17;100.00;100967.78;5609043;31;34521;-69
2024/01/12 02:27:19;;;;;;;38.25;24.63;;;;;;;-2.26;100.00;100972.50;5608101;31;34399;-70
2024/01/12 02:30:23;;;;;;;10.48;5.00;;;;;;;-2.20;100.00;100972.22;5608622;31;35041;-69
2024/01/12 02:33:26;;;;;;;36.17;23.77;;;;;;;-2.22;100.00;100983.59;5608642;31;34406;-69
2024/01/12 02:36:29;;;;;;;38.10;24.35;;;;;;;-2.18;100.00;100986.91;5609028;31;34473;-70
2024/01/12 02:39:32;;;;;;;40.30;24.40;;;;;;;-2.24;100.00;100988.88;5608033;31;34467;-69
2024/01/12 02:42:35;;;;;;;35.30;24.23;;;;;;;-2.26;100.00;100998.50;5608910;31;34359;-69
2024/01/12 02:45:38;;;;;;;38.58;25.30;;;;;;;-2.30;100.00;100996.97;5608917;31;34314;-69
2024/01/12 02:48:41;;;;;;;15.23;4.47;;;;;;;-2.34;100.00;101004.97;5608137;31;34363;-69
2024/01/12 02:51:45;;;;;;;36.70;23.87;;;;;;;-2.42;100.00;101002.72;5608856;31;35005;-69
2024/01/12 02:54:48;;;;;;;9.73;4.22;;;;;;;-2.45;100.00;101005.47;5608779;31;35148;-69
2024/01/12 02:57:51;;;;;;;37.03;25.12;;;;;;;-2.48;100.00;101010.81;5608723;31;34348;-69
2024/01/12 03:00:54;;;;;;;39.20;24.67;;;;;;;-2.42;100.00;101010.50;5608785;31;34386;-69
2024/01/12 03:03:57;;;;;;;12.02;4.70;;;;;;;-2.44;100.00;101014.09;5608737;31;34984;-69
2024/01/12 03:07:00;;;;;;;35.70;23.52;;;;;;;-2.41;100.00;101001.81;5607897;31;34463;-69
2024/01/12 03:10:03;;;;;;;36.60;24.17;;;;;;;-2.35;100.00;101006.72;5608688;31;34390;-69
2024/01/12 03:13:06;;;;;;;6.95;4.03;;;;;;;-2.43;100.00;100997.59;5607836;31;34280;-70
2024/01/12 03:16:27;;;;;;;35.83;24.55;;;;;;;-2.49;100.00;100992.69;5608657;31;35586;-70
2024/01/12 03:19:30;;;;;;;35.50;24.02;;;;;;;-2.61;100.00;100999.25;5608358;31;34320;-69
2024/01/12 03:22:35;;;;;;;15.07;5.80;;;;;;;-2.61;100.00;100993.25;5608594;31;35085;-68
2024/01/12 03:25:37;;;;;;;36.50;23.12;;;;;;;-2.69;100.00;100988.38;5608526;31;34976;-68
2024/01/12 03:28:40;;;;;;;35.42;23.62;;;;;;;-2.71;100.00;100983.25;5608476;31;34557;-68
2024/01/12 03:31:43;;;;;;;37.47;23.70;;;;;;;-2.82;100.00;100987.25;5608469;31;34525;-68
2024/01/12 03:34:46;;;;;;;15.80;5.18;;;;;;;-2.84;100.00;100986.47;5608358;31;34336;-68
2024/01/12 03:37:49;;;;;;;34.72;22.77;;;;;;;-2.92;100.00;100988.56;5608277;31;34514;-68
2024/01/12 03:40:52;;;;;;;35.65;23.40;;;;;;;-2.92;100.00;100994.62;5608389;31;34400;-68
2024/01/12 03:43:54;;;;;;;31.52;21.75;;;;;;;-2.89;100.00;100996.22;5607971;31;35447;-68
2024/01/12 03:46:59;;;;;;;5.03;2.62;;;;;;;-2.95;100.00;101002.53;5608191;31;34564;-67
2024/01/12 03:50:02;;;;;;;32.13;21.92;;;;;;;-2.87;100.00;100994.41;5608198;31;35103;-68
2024/01/12 03:53:05;;;;;;;34.20;22.17;;;;;;;-2.90;100.00;100992.78;5608313;31;34715;-69
2024/01/12 03:56:08;;;;;;;8.88;3.72;;;;;;;-2.89;100.00;100996.22;5608233;31;34410;-68
2024/01/12 03:59:11;;;;;;;32.10;21.08;;;;;;;-2.80;100.00;100998.41;5608180;31;34506;-69
2024/01/12 04:02:14;;;;;;;31.98;21.50;;;;;;;-2.87;100.00;101007.38;5608269;31;34318;-69
2024/01/12 04:05:18;;;;;;;8.77;5.00;;;;;;;-2.84;100.00;101012.44;5608264;31;34363;-69
2024/01/12 04:08:21;;;;;;;35.05;22.05;;;;;;;-2.91;100.00;101008.44;5608009;31;35051;-69
2024/01/12 04:11:26;;;;;;;32.30;21.02;;;;;;;-2.96;100.00;101013.00;5607976;31;34345;-69
2024/01/12 04:14:28;;;;;;;6.55;3.28;;;;;;;-2.84;100.00;101020.22;5607721;31;35007;-70
2024/01/12 04:17:35;;;;;;;34.10;21.85;;;;;;;-2.90;100.00;101008.34;5603969;31;126742;-71
2024/01/12 04:20:37;;;;;;;7.87;3.20;;;;;;;-2.88;100.00;101010.88;5607593;31;35022;-68
2024/01/12 04:23:40;;;;;;;30.15;20.30;;;;;;;-2.83;100.00;101014.97;5608155;31;34306;-69
2024/01/12 04:26:43;;;;;;;9.55;3.75;;;;;;;-2.82;100.00;101019.25;5607834;31;34935;-68
2024/01/12 04:29:47;;;;;;;29.45;20.08;;;;;;;-2.85;100.00;101018.53;5607608;31;35357;-69
2024/01/12 04:32:49;;;;;;;28.70;19.73;;;;;;;-2.95;100.00;101017.28;5607446;31;34474;-68
2024/01/12 04:35:53;;;;;;;6.07;3.67;;;;;;;-2.95;100.00;101007.72;5607469;31;34536;-68
2024/01/12 04:38:57;;;;;;;28.15;19.08;;;;;;;-3.00;100.00;101016.63;5607384;31;34360;-69
2024/01/12 04:42:00;;;;;;;9.05;4.43;;;;;;;-3.02;100.00;101024.47;5607421;31;34273;-66
2024/01/12 04:45:04;;;;;;;28.30;18.48;;;;;;;-2.89;100.00;101019.59;5607338;31;34999;-67
2024/01/12 04:48:07;;;;;;;28.73;18.48;;;;;;;-2.81;100.00;101023.53;5607260;31;34960;-68
2024/01/12 04:51:10;;;;;;;8.93;3.12;;;;;;;-2.76;100.00;101018.97;5607097;31;34362;-66
2024/01/12 04:54:13;;;;;;;25.70;17.05;;;;;;;-2.61;100.00;101025.22;5607241;31;35048;-67
2024/01/12 04:57:16;;;;;;;28.87;17.85;;;;;;;-2.55;100.00;101035.34;5608990;31;34393;-67
2024/01/12 05:00:19;;;;;;;16.92;4.75;;;;;;;-2.52;100.00;101052.56;5609682;31;34656;-66
2024/01/12 05:03:22;;;;;;;24.85;16.62;;;;;;;-2.45;100.00;101052.22;5610044;31;34410;-66
2024/01/12 05:06:25;;;;;;;25.15;16.30;;;;;;;-2.47;100.00;101056.63;5609637;31;35766;-66
2024/01/12 05:09:30;;;;;;;21.62;15.32;;;;;;;-2.40;100.00;101054.59;5610197;31;34463;-67
2024/01/12 05:12:34;;;;;;;8.77;5.30;;;;;;;-2.38;100.00;101071.00;5609697;31;35862;-66
2024/01/12 05:15:37;;;;;;;22.73;15.65;;;;;;;-2.37;100.00;101072.69;5609601;31;35034;-66
2024/01/12 05:18:40;;;;;;;23.05;15.35;;;;;;;-2.41;100.00;101074.56;5609521;31;34966;-67
2024/01/12 05:21:43;;;;;;;4.07;2.12;;;;;;;-2.43;100.00;101067.75;5609655;31;34386;-66
2024/01/12 05:24:46;;;;;;;22.48;15.00;;;;;;;-2.46;100.00;101070.47;5609704;31;34349;-66
2024/01/12 05:27:49;;;;;;;22.42;14.95;;;;;;;-2.49;100.00;101083.59;5609615;31;34650;-67
2024/01/12 05:30:52;;;;;;;22.13;14.87;;;;;;;-2.46;100.00;101071.31;5609580;31;34403;-66
2024/01/12 05:33:55;;;;;;;21.02;14.20;;;;;;;-2.51;100.00;101078.47;5609521;31;35210;-67
2024/01/12 05:36:58;;;;;;;7.95;4.90;;;;;;;-2.52;100.00;101076.81;5609627;31;34504;-66
2024/01/12 05:40:01;;;;;;;19.20;13.60;;;;;;;-2.50;100.00;101084.50;5609411;31;34453;-67
2024/01/12 05:43:04;;;;;;;18.27;13.20;;;;;;;-2.46;100.00;101088.66;5609382;31;35860;-67
2024/01/12 05:46:07;;;;;;;4.32;1.98;;;;;;;-2.42;100.00;101090.22;5609507;31;35090;-67
2024/01/12 05:49:10;;;;;;;19.30;12.45;;;;;;;-2.46;100.00;101097.28;5609774;31;35281;-66
2024/01/12 05:52:13;;;;;;;8.40;3.50;;;;;;;-2.48;100.00;101095.69;5608459;31;34315;-67
2024/01/12 05:55:16;;;;;;;16.73;11.98;;;;;;;-2.50;100.00;101089.69;5609453;31;35146;-66
2024/01/12 05:58:20;;;;;;;9.25;3.53;;;;;;;-2.48;100.00;101093.09;5609206;31;35043;-67
2024/01/12 06:01:23;;;;;;;16.45;11.18;;;;;;;-2.54;100.00;101099.41;5609195;31;34510;-67
2024/01/12 06:04:26;;;;;;;16.42;10.60;;;;;;;-2.48;100.00;101098.28;5609072;31;34974;-67
2024/01/12 06:07:29;;;;;;;5.47;2.45;;;;;;;-2.59;100.00;101092.72;5607789;31;34501;-67
2024/01/12 06:10:33;;;;;;;18.23;11.60;;;;;;;-2.61;100.00;101090.16;5608598;31;34478;-67
2024/01/12 06:13:35;;;;;;;5.20;2.05;;;;;;;-2.69;100.00;101087.06;5608537;31;35136;-67
2024/01/12 06:16:39;;;;;;;15.77;10.85;;;;;;;-2.68;100.00;101088.75;5608803;31;34466;-66
2024/01/12 06:19:41;;;;;;;16.40;11.02;;;;;;;-2.62;100.00;101106.69;5608725;31;34384;-68
2024/01/12 06:22:44;;;;;;;5.37;2.62;;;;;;;-2.62;100.00;101108.44;5609173;31;34540;-67
2024/01/12 06:25:47;;;;;;;4.78;2.30;;;;;;;-2.66;100.00;101111.16;5608810;31;35410;-68
2024/01/12 06:28:50;;;;;;;15.10;10.65;;;;;;;-2.69;100.00;101110.44;5608943;31;34266;-67
2024/01/12 06:31:53;;;;;;;16.67;10.30;;;;;;;-2.74;100.00;101115.00;5608157;31;34404;-68
2024/01/12 06:34:56;;;;;;;5.95;3.42;;;;;;;-2.69;100.00;101126.03;5608567;31;34374;-67
2024/01/12 06:37:58;;;;;;;15.20;10.70;;;;;;;-2.69;100.00;101119.09;5608893;31;34297;-67
2024/01/12 06:41:02;;;;;;;16.02;11.20;;;;;;;-2.70;100.00;101119.13;5608702;31;34420;-67
2024/01/12 06:44:05;;;;;;;16.85;11.90;;;;;;;-2.69;100.00;101131.22;5609043;31;34704;-68
2024/01/12 06:47:08;;;;;;;6.85;3.17;;;;;;;-2.72;100.00;101126.16;5608849;31;34353;-68
2024/01/12 06:50:11;;;;;;;18.10;11.32;;;;;;;-2.73;100.00;101129.66;5608377;31;34426;-67
2024/01/12 06:53:14;;;;;;;16.67;11.88;;;;;;;-2.71;100.00;101140.84;5608648;31;35022;-69
2024/01/12 06:56:20;;;;;;;3.78;2.37;;;;;;;-2.73;100.00;101129.66;5609074;31;34550;-68
2024/01/12 06:59:23;;;;;;;16.45;10.70;;;;;;;-2.72;100.00;101133.97;5608293;31;34602;-68
2024/01/12 07:02:26;;;;;;;15.85;10.70;;;;;;;-2.68;100.00;101132.91;5608194;31;34341;-68
2024/01/12 07:05:29;;;;;;;3.47;1.92;;;;;;;-2.75;100.00;101140.09;5608229;31;34211;-67
2024/01/12 07:08:32;;;;;;;17.08;11.27;;;;;;;-2.81;100.00;101136.94;5608533;31;34999;-67
2024/01/12 07:11:40;;;;;;;4.60;2.78;;;;;;;-2.74;100.00;101146.16;5608534;31;34957;-67
2024/01/12 07:14:42;;;;;;;17.90;11.57;;;;;;;-2.71;100.00;101161.63;5608055;31;34371;-67
2024/01/12 07:17:49;;;;;;;10.85;2.03;;;;;;;-2.64;100.00;101163.88;5608661;31;34448;-67
2024/01/12 07:20:52;;;;;;;19.58;11.95;;;;;;;-2.65;100.00;101159.59;5607039;31;34496;-68
2024/01/12 07:23:55;;;;;;;15.80;11.70;;;;;;;-2.69;100.00;101172.78;5608555;31;35375;-67
2024/01/12 07:26:58;;;;;;;19.77;12.25;;;;;;;-2.68;100.00;101182.25;5608051;31;34417;-67
2024/01/12 07:30:01;;;;;;;4.50;1.95;;;;;;;-2.67;100.00;101176.16;5608382;31;35159;-68
2024/01/12 07:33:04;;;;;;;17.35;11.88;;;;;;;-2.67;100.00;101179.59;5608251;31;34441;-68
2024/01/12 07:36:08;;;;;;;17.55;12.00;;;;;;;-2.72;100.00;101180.69;5608170;31;35065;-68
2024/01/12 07:39:12;;;;;;;4.37;2.80;;;;;;;-2.66;100.00;101183.03;5608329;31;34363;-68
2024/01/12 07:42:15;;;;;;;19.30;12.32;;;;;;;-2.56;100.00;101183.47;5607385;31;34406;-68
2024/01/12 07:45:17;;;;;;;20.12;12.90;;;;;;;-2.66;100.00;101185.63;5608047;31;34362;-67
2024/01/12 07:48:20;;;;;;;19.55;12.85;;;;;;;-2.58;100.00;101183.56;5608400;31;34276;-67
2024/01/12 07:51:23;;;;;;;3.75;2.67;;;;;;;-2.60;100.00;101187.13;5607912;31;34458;-67
2024/01/12 07:54:27;;;;;;;18.83;13.25;;;;;;;-2.52;100.00;101196.31;5608311;31;34381;-67
2024/01/12 07:57:29;;;;;;;8.50;3.83;;;;;;;-2.52;100.00;101191.09;5608303;31;34645;-64
2024/01/12 08:00:33;;;;;;;18.75;13.38;;;;;;;-2.42;100.00;101202.75;5607714;31;34358;-67
2024/01/12 08:03:35;;;;;;;19.42;12.88;;;;;;;-2.42;100.00;101202.75;5607168;31;34362;-66
2024/01/12 08:06:38;;;;;;;19.80;13.75;;;;;;;-2.33;100.00;101209.34;5608144;31;34397;-66
2024/01/12 08:09:41;;;;;;;22.25;13.70;;;;;;;-2.32;100.00;101224.84;5608009;31;35060;-67
2024/01/12 08:12:45;;;;;;;23.35;14.80;;;;;;;-2.24;100.00;101220.19;5608016;31;34271;-67
2024/01/12 08:15:48;;;;;;;19.27;13.50;;;;;;;-2.23;100.00;101223.63;5607883;31;34493;-67
2024/01/12 08:18:50;;;;;;;21.05;14.80;;;;;;;-2.16;100.00;101227.63;5608021;31;34972;-68
2024/01/12 08:21:54;;;;;;;23.38;14.50;;;;;;;-2.13;100.00;101219.69;5606936;31;34481;-68
2024/01/12 08:24:59;;;;;;;8.95;3.33;;;;;;;-2.04;100.00;101231.47;5607316;31;34891;-67
2024/01/12 08:28:03;;;;;;;21.35;15.18;;;;;;;-1.96;100.00;101229.38;5606642;31;35178;-68
2024/01/12 08:31:06;;;;;;;22.73;14.95;;;;;;;-1.92;100.00;101231.75;5608170;31;35144;-67
2024/01/12 08:34:09;;;;;;;22.33;14.82;;;;;;;-1.89;100.00;101236.00;5609866;31;34936;-67
2024/01/12 08:37:13;;;;;;;21.60;14.80;;;;;;;-1.83;100.00;101233.97;5609975;31;35051;-67
2024/01/12 08:40:16;;;;;;;22.30;15.27;;;;;;;-1.78;100.00;101242.41;5610014;31;34582;-68
2024/01/12 08:43:19;;;;;;;24.92;15.10;;;;;;;-1.71;100.00;101249.94;5610011;31;34997;-68
2024/01/12 08:46:22;;;;;;;21.55;15.07;;;;;;;-1.66;100.00;101242.78;5609581;31;34455;-67
2024/01/12 08:49:25;;;;;;;23.42;15.30;;;;;;;-1.65;100.00;101250.50;5609597;31;35007;-67
2024/01/12 08:52:28;;;;;;;21.12;14.90;;;;;;;-1.52;100.00;101249.03;5609640;31;34383;-68
2024/01/12 08:55:31;;;;;;;27.70;15.75;;;;;;;-1.49;100.00;101261.91;5609483;31;34710;-67
2024/01/12 08:58:34;;;;;;;23.70;15.35;;;;;;;-1.47;100.00;101256.63;5609521;31;34331;-67
2024/01/12 09:01:38;;;;;;;22.75;14.80;;;;;;;-1.35;100.00;101262.09;5609694;31;34273;-67
2024/01/12 09:04:41;;;;;;;30.20;15.77;;;;;;;-1.22;100.00;101267.59;5609219;31;35244;-67
2024/01/12 09:07:44;;;;;;;27.23;14.98;;;;;;;-1.22;100.00;101270.22;5609677;31;34455;-67
2024/01/12 09:10:48;;;;;;;22.98;15.25;;;;;;;-1.19;100.00;101272.66;5609668;31;34515;-68
2024/01/12 09:13:51;;;;;;;25.52;15.75;;;;;;;-1.21;100.00;101273.66;5608421;31;34315;-67
2024/01/12 09:16:54;;;;;;;22.42;16.10;;;;;;;-1.07;100.00;101277.31;5609689;31;34534;-68
2024/01/12 09:19:56;;;;;;;25.85;14.93;;;;;;;-0.88;100.00;101274.69;5609271;31;34944;-67
2024/01/12 09:22:59;;;;;;;21.10;14.35;;;;;;;-0.81;100.00;101276.06;5609355;31;34287;-67
2024/01/12 09:26:02;;;;;;;20.05;14.35;;;;;;;-0.71;100.00;101282.50;5609264;31;34456;-67
2024/01/12 09:29:05;;;;;;;22.55;14.38;;;;;;;-0.65;100.00;101286.59;5609245;31;34427;-67
2024/01/12 09:32:08;;;;;;;21.52;13.65;;;;;;;-0.40;100.00;101288.84;5609249;31;35177;-67
2024/01/12 09:35:11;;;;;;;21.20;14.30;;;;;;;-0.21;100.00;101287.00;5609376;31;34372;-67
2024/01/12 09:38:14;;;;;;;18.20;13.65;;;;;;;-0.10;100.00;101282.09;5608987;31;34593;-66
2024/01/12 09:41:25;;;;;;;21.08;13.68;;;;;;;-0.13;100.00;101280.47;5609154;31;34233;-68
2024/01/12 09:44:32;;;;;;;22.08;14.75;;;;;;;-0.02;100.00;101279.94;5608659;31;34297;-67
2024/01/12 09:47:35;;;;;;;22.45;14.43;;;;;;;0.07;100.00;101281.22;5608530;31;35069;-67
2024/01/12 09:50:39;;;;;;;26.25;13.80;;;;;;;0.28;100.00;101282.72;5609095;31;34331;-68
2024/01/12 09:53:42;;;;;;;19.95;13.62;;;;;;;0.26;100.00;101280.19;5609131;31;34264;-67
2024/01/12 09:56:46;;;;;;;24.77;13.65;;;;;;;0.17;100.00;101270.22;5609146;31;34267;-67
2024/01/12 09:59:50;;;;;;;24.02;14.60;;;;;;;0.04;100.00;101277.00;5608629;31;34933;-68
2024/01/12 10:02:55;;;;;;;21.12;14.40;;;;;;;0.17;100.00;101275.44;5609279;31;34355;-67
2024/01/12 10:05:58;;;;;;;21.30;13.57;;;;;;;0.37;100.00;101280.47;5609271;31;34952;-68
2024/01/12 10:09:03;;;;;;;28.08;14.55;;;;;;;0.48;100.00;101281.66;5609219;31;34622;-68
2024/01/12 10:12:06;;;;;;;29.55;15.00;;;;;;;0.78;100.00;101280.84;5608972;31;34498;-69
2024/01/12 10:15:09;;;;;;;27.83;14.13;;;;;;;0.87;100.00;101285.56;5608808;31;35004;-68
2024/01/12 10:18:13;;;;;;;24.67;13.82;;;;;;;1.12;100.00;101281.59;5594964;31;34447;-69
2024/01/12 10:21:15;;;;;;;22.17;13.82;;;;;;;1.16;100.00;101280.53;5608167;31;34352;-68
2024/01/12 10:24:20;;;;;;;21.10;12.98;;;;;;;1.19;100.00;101285.56;5608954;31;34285;-69
2024/01/12 10:27:23;;;;;;;20.75;12.35;;;;;;;1.28;100.00;101271.97;5608798;31;34382;-71
2024/01/12 10:30:31;;;;;;;22.15;12.93;;;;;;;0.87;100.00;101269.06;5608841;31;34279;-70
2024/01/12 10:33:34;;;;;;;21.48;12.95;;;;;;;1.08;100.00;101275.72;5608843;31;35080;-69
2024/01/12 10:36:39;;;;;;;21.20;12.80;;;;;;;1.23;100.00;101274.84;5608062;31;34494;-69
2024/01/12 10:39:46;;;;;;;23.62;12.98;;;;;;;1.44;100.00;101274.56;5608817;31;34254;-69
2024/01/12 10:42:50;;;;;;;19.20;12.55;;;;;;;1.03;100.00;101269.06;5609038;31;35018;-69
2024/01/12 10:45:58;;;;;;;20.92;13.13;;;;;;;1.02;100.00;101269.97;5609165;31;34326;-68
2024/01/12 10:49:16;;;;;;;19.33;12.65;;;;;;;0.99;100.00;101271.00;5609191;31;34325;-68
2024/01/12 10:52:38;;;;;;;22.10;12.43;;;;;;;1.01;100.00;101263.94;5608319;31;34321;-70
2024/01/12 10:55:50;;;;;;;19.90;12.77;;;;;;;0.97;100.00;101251.94;5608865;31;34357;-70
2024/01/12 10:58:54;;;;;;;20.62;12.82;;;;;;;0.82;100.00;101253.63;5608329;31;34767;-70
2024/01/12 11:01:59;;;;;;;19.00;12.65;;;;;;;1.24;100.00;101255.62;5608970;31;35830;-69
2024/01/12 11:05:02;;;;;;;18.80;13.10;;;;;;;1.40;100.00;101254.75;5608581;31;34913;-68
2024/01/12 11:08:09;;;;;;;19.35;12.48;;;;;;;1.70;100.00;101251.19;5607797;31;34307;-69
2024/01/12 11:11:17;;;;;;;20.08;12.50;;;;;;;1.80;100.00;101246.25;5608645;31;35029;-70
2024/01/12 11:14:21;;;;;;;18.02;11.88;;;;;;;2.04;100.00;101247.41;5608663;31;34500;-68
2024/01/12 11:17:34;;;;;;;18.17;12.13;;;;;;;1.56;100.00;101240.69;5608767;31;34949;-71
2024/01/12 11:20:38;;;;;;;20.17;12.85;;;;;;;1.74;100.00;101249.25;5608174;31;34238;-68
2024/01/12 11:23:42;;;;;;;19.80;12.63;;;;;;;1.89;100.00;101237.06;5608383;31;34367;-68
2024/01/12 11:26:45;;;;;;;21.12;13.65;;;;;;;1.78;100.00;101239.44;5608244;31;34286;-70
2024/01/12 11:29:48;;;;;;;17.70;12.43;;;;;;;2.24;100.00;101234.91;5608415;31;35426;-70
2024/01/12 11:33:02;;;;;;;17.77;12.00;;;;;;;2.03;100.00;101244.91;5608815;31;34509;-70
2024/01/12 11:36:09;;;;;;;19.83;12.35;;;;;;;1.90;100.00;101241.31;5608145;31;34289;-70
2024/01/12 11:39:13;;;;;;;19.27;12.27;;;;;;;2.11;100.00;101232.19;5608129;31;35084;-70
2024/01/12 11:42:18;;;;;;;18.45;12.27;;;;;;;1.92;100.00;101227.22;5608072;31;34599;-70
2024/01/12 11:45:21;;;;;;;19.15;12.48;;;;;;;1.85;100.00;101227.69;5607468;31;34449;-69
2024/01/12 11:48:23;;;;;;;18.50;12.25;;;;;;;1.63;100.00;101228.12;5608255;31;34439;-70
2024/01/12 11:51:29;;;;;;;18.58;12.13;;;;;;;1.89;100.00;101234.44;5608134;31;34509;-69
2024/01/12 11:54:33;;;;;;;18.62;11.70;;;;;;;1.66;100.00;101215.69;5608033;31;34266;-70
2024/01/12 11:57:37;;;;;;;16.80;11.40;;;;;;;1.78;100.00;101223.75;5608153;31;34546;-70
2024/01/12 12:00:40;;;;;;;16.37;11.45;;;;;;;1.75;100.00;101220.37;5608338;31;34628;-70
2024/01/12 12:03:44;;;;;;;20.02;11.88;;;;;;;1.85;100.00;101217.22;5607862;31;34351;-70
2024/01/12 12:06:48;;;;;;;16.10;11.32;;;;;;;1.65;100.00;101221.00;5607126;31;34286;-69
2024/01/12 12:09:51;;;;;;;17.98;11.63;;;;;;;1.48;100.00;101218.56;5607590;31;35074;-69
2024/01/12 12:12:54;;;;;;;18.02;11.75;;;;;;;1.49;100.00;101217.63;5607914;31;34433;-70
2024/01/12 12:15:58;;;;;;;20.88;12.13;;;;;;;1.58;100.00;101214.47;5607784;31;35201;-69
2024/01/12 12:19:02;;;;;;;19.80;11.57;;;;;;;1.43;100.00;101218.81;5607546;31;35250;-69
2024/01/12 12:22:06;;;;;;;20.48;12.63;;;;;;;1.23;100.00;101209.50;5607564;31;34450;-69
2024/01/12 12:25:16;;;;;;;17.80;12.10;;;;;;;1.45;100.00;101209.13;5607981;31;34379;-69
2024/01/12 12:28:19;;;;;;;17.85;11.77;;;;;;;1.49;100.00;101201.94;5606788;31;34725;-69
2024/01/12 12:31:24;;;;;;;18.95;12.23;;;;;;;1.46;100.00;101199.47;5607628;31;34411;-69
2024/01/12 12:34:33;;;;;;;20.20;12.73;;;;;;;1.55;100.00;101197.16;5607614;31;34572;-69
2024/01/12 12:37:36;;;;;;;20.90;12.32;;;;;;;1.59;100.00;101197.84;5607548;31;35031;-69
2024/01/12 12:40:39;;;;;;;18.12;13.02;;;;;;;1.45;100.00;101198.66;5607457;31;34276;-69
2024/01/12 12:43:44;;;;;;;21.37;12.57;;;;;;;1.39;100.00;101195.56;5607284;31;34359;-71
2024/01/12 12:46:49;;;;;;;16.83;11.85;;;;;;;1.61;100.00;101202.03;5607479;31;34366;-70
2024/01/12 12:49:52;;;;;;;19.08;12.15;;;;;;;1.56;100.00;101192.78;5606862;31;34324;-70
2024/01/12 12:52:56;;;;;;;23.12;12.00;;;;;;;1.89;100.00;101201.22;5607368;31;34421;-70
2024/01/12 12:55:59;;;;;;;21.67;12.52;;;;;;;1.87;100.00;101199.66;5607401;31;34369;-70
2024/01/12 12:59:03;;;;;;;17.92;11.20;;;;;;;1.98;100.00;101192.84;5607272;31;34357;-69
2024/01/12 13:02:06;;;;;;;16.98;11.73;;;;;;;1.99;100.00;101188.44;5607059;31;34929;-69
2024/01/12 13:05:11;;;;;;;20.45;11.50;;;;;;;2.02;100.00;101188.25;5607437;31;36044;-69
2024/01/12 13:08:15;;;;;;;18.60;11.48;;;;;;;2.16;100.00;101178.63;5607102;31;34365;-69
2024/01/12 13:11:18;;;;;;;20.98;11.10;;;;;;;2.04;100.00;101184.59;5606985;31;34380;-69
2024/01/12 13:14:23;;;;;;;15.48;10.20;;;;;;;2.37;99.31;101180.88;5606975;31;34346;-69
2024/01/12 13:17:26;;;;;;;17.15;11.15;;;;;;;2.34;96.12;101179.25;5607783;31;34522;-69
2024/01/12 13:20:29;;;;;;;18.12;10.20;;;;;;;2.11;96.19;101178.06;5609302;31;34368;-71
2024/01/12 13:23:35;;;;;;;16.85;10.68;;;;;;;2.14;98.21;101177.03;5609937;31;35004;-69
2024/01/12 13:26:38;;;;;;;17.55;10.65;;;;;;;1.96;98.49;101175.56;5609190;31;34266;-69
2024/01/12 13:29:42;;;;;;;15.77;10.35;;;;;;;1.92;97.43;101174.91;5609427;31;34577;-70
2024/01/12 13:32:45;;;;;;;18.35;10.98;;;;;;;1.97;99.12;101169.37;5609589;31;35148;-71
2024/01/12 13:35:48;;;;;;;15.52;10.23;;;;;;;1.90;96.76;101168.06;5609791;31;34254;-69
2024/01/12 13:38:53;;;;;;;17.58;10.48;;;;;;;2.00;98.01;101164.78;5609525;31;35319;-71
2024/01/12 13:42:01;;;;;;;19.70;10.05;;;;;;;2.02;96.42;101160.31;5609259;31;34454;-71
2024/01/12 13:45:05;;;;;;;15.65;10.38;;;;;;;2.14;94.27;101161.31;5609547;31;34659;-71
2024/01/12 13:48:08;;;;;;;15.13;9.68;;;;;;;2.27;95.35;101153.56;5608996;31;34993;-71
2024/01/12 13:51:15;;;;;;;17.05;9.68;;;;;;;2.34;92.51;101155.69;5609288;31;34359;-71